Time;durP1;ratioP1;P1;durP2;ratioP2;P2;SDS_P1;SDS_P2;PMS_P1;PMS_P2;Temp;Humidity;BMP_temperature;BMP_pressure;BME280_temperature;BME280_humidity;BME280_pressure;Samples;Min_cycle;Max_cycle;Signal;HPM_P1;HPM_P2
2024/03/27 00:00:23;;;;;;;15.40;8.30;;;;;;;6.90;48.89;99941.09;108109;1253;61745;-66
2024/03/27 00:02:51;;;;;;;16.70;9.00;;;;;;;6.97;48.66;99939.68;108133;1254;61235;-66
2024/03/27 00:05:18;;;;;;;18.40;9.30;;;;;;;6.92;48.86;99937.70;108180;1251;74602;-67
2024/03/27 00:07:45;;;;;;;22.30;10.50;;;;;;;6.94;48.67;99938.19;108064;1251;69966;-66
2024/03/27 00:10:13;;;;;;;16.10;9.40;;;;;;;6.89;48.77;99942.85;108111;1251;71403;-66
2024/03/27 00:12:40;;;;;;;16.60;8.80;;;;;;;6.89;48.73;99942.85;108110;1251;61833;-66
2024/03/27 00:15:08;;;;;;;18.20;9.50;;;;;;;6.93;48.48;99944.67;108080;1251;61351;-66
2024/03/27 00:17:35;;;;;;;16.40;7.80;;;;;;;6.89;48.56;99945.13;108103;1254;74601;-67
2024/03/27 00:20:03;;;;;;;16.00;8.70;;;;;;;6.93;48.58;99945.89;108139;1251;69083;-66
2024/03/27 00:22:30;;;;;;;18.50;9.40;;;;;;;7.01;48.19;99948.33;108124;1257;72662;-66
2024/03/27 00:24:58;;;;;;;17.50;8.70;;;;;;;7.01;48.35;99945.18;108083;1253;60581;-67
2024/03/27 00:27:25;;;;;;;17.60;9.00;;;;;;;7.02;48.22;99945.34;108113;1251;61253;-66
2024/03/27 00:29:52;;;;;;;15.20;7.80;;;;;;;7.05;48.01;99948.23;108047;1251;74632;-66
2024/03/27 00:32:20;;;;;;;15.30;8.00;;;;;;;7.05;47.94;99950.65;108058;1251;70121;-66
2024/03/27 00:34:47;;;;;;;13.00;7.00;;;;;;;6.91;48.25;99952.75;108091;1257;71363;-67
2024/03/27 00:37:14;;;;;;;18.40;8.30;;;;;;;6.98;48.17;99954.16;108086;1253;61075;-66
2024/03/27 00:39:42;;;;;;;18.30;8.50;;;;;;;6.96;48.27;99958.90;108110;1253;61089;-67
2024/03/27 00:42:09;;;;;;;18.10;7.80;;;;;;;6.86;48.35;99958.47;108099;1253;74579;-67
2024/03/27 00:44:36;;;;;;;16.10;7.60;;;;;;;6.83;48.28;99961.48;108150;1253;69044;-67
2024/03/27 00:47:03;;;;;;;14.50;7.30;;;;;;;6.76;48.67;99964.64;108050;1253;72759;-67
2024/03/27 00:49:30;;;;;;;11.80;6.50;;;;;;;6.73;48.69;99967.85;108036;1252;61701;-66
2024/03/27 00:51:58;;;;;;;13.80;7.10;;;;;;;6.73;48.62;99967.30;108102;1253;61175;-66
2024/03/27 00:54:25;;;;;;;10.90;6.20;;;;;;;6.68;48.74;99972.32;108081;1253;73483;-66
2024/03/27 00:56:52;;;;;;;15.40;7.70;;;;;;;6.64;48.75;99979.76;108128;1253;70432;-67
2024/03/27 00:59:19;;;;;;;13.80;7.60;;;;;;;6.67;49.00;99978.29;108063;1253;71452;-66
2024/03/27 01:01:47;;;;;;;13.20;6.90;;;;;;;6.66;48.90;99979.70;108070;1253;61120;-66
2024/03/27 01:04:14;;;;;;;16.80;7.80;;;;;;;6.59;49.00;99981.45;108166;1253;60019;-66
2024/03/27 01:06:41;;;;;;;17.00;7.40;;;;;;;6.51;49.13;99981.80;108132;1253;74668;-66
2024/03/27 01:09:10;;;;;;;13.40;7.00;;;;;;;6.50;49.44;99977.62;108037;1253;69727;-66
2024/03/27 01:11:37;;;;;;;15.50;7.00;;;;;;;6.58;49.10;99977.63;108133;1252;72654;-67
2024/03/27 01:14:04;;;;;;;12.10;6.40;;;;;;;6.53;49.15;99978.95;108058;1253;61239;-66
2024/03/27 01:16:32;;;;;;;13.80;6.70;;;;;;;6.35;49.62;99980.92;108032;1253;61164;-66
2024/03/27 01:18:59;;;;;;;14.90;6.90;;;;;;;6.39;49.70;99978.05;108043;1253;72753;-66
2024/03/27 01:21:27;;;;;;;14.00;7.20;;;;;;;6.49;49.28;99975.02;108078;1253;70587;-66
2024/03/27 01:23:54;;;;;;;11.70;7.10;;;;;;;6.52;48.98;99976.72;108030;1253;71566;-66
2024/03/27 01:26:22;;;;;;;16.10;7.90;;;;;;;6.49;49.20;99976.94;108072;1252;61072;-66
2024/03/27 01:28:49;;;;;;;14.50;7.40;;;;;;;6.47;49.16;99978.04;108049;1258;59958;-66
2024/03/27 01:31:16;;;;;;;14.40;6.80;;;;;;;6.44;49.00;99974.61;108048;1253;74044;-66
2024/03/27 01:33:49;;;;;;;13.60;7.00;;;;;;;6.35;49.16;99973.94;108109;1253;69990;-66
2024/03/27 01:36:16;;;;;;;15.70;7.50;;;;;;;6.42;48.94;99981.81;108118;1251;71589;-66
2024/03/27 01:38:45;;;;;;;12.40;6.90;;;;;;;6.40;49.03;99987.79;108186;1251;61790;-66
2024/03/27 01:41:12;;;;;;;15.50;6.60;;;;;;;6.40;49.18;99993.90;108160;1251;60550;-66
2024/03/27 01:43:40;;;;;;;59.20;27.40;;;;;;;6.39;49.21;99995.31;108102;1251;72470;-66
2024/03/27 01:46:09;;;;;;;42.90;20.90;;;;;;;6.51;49.03;99999.77;108124;1251;69971;-66
2024/03/27 01:48:36;;;;;;;28.40;15.10;;;;;;;6.52;49.01;99998.50;108122;1251;71345;-66
2024/03/27 01:51:04;;;;;;;19.00;9.90;;;;;;;6.35;49.27;99998.89;108122;1251;61096;-66
2024/03/27 01:53:32;;;;;;;16.20;8.00;;;;;;;6.45;49.29;99997.09;108206;1251;60103;-66
2024/03/27 01:55:59;;;;;;;15.10;8.40;;;;;;;6.57;48.97;100004.33;108002;1251;73670;-66
2024/03/27 01:58:27;;;;;;;14.10;7.90;;;;;;;6.53;49.05;100005.48;108099;1251;69161;-66
2024/03/27 02:00:54;;;;;;;15.00;7.20;;;;;;;6.45;49.30;100006.68;108085;1251;73146;-66
2024/03/27 02:03:21;;;;;;;13.20;7.30;;;;;;;6.35;49.47;100007.79;108137;1253;62683;-66
2024/03/27 02:05:49;;;;;;;13.60;6.40;;;;;;;6.38;49.50;100007.89;108229;1251;61102;-66
2024/03/27 02:08:16;;;;;;;14.30;6.70;;;;;;;6.40;49.16;100008.37;108033;1253;74714;-66
2024/03/27 02:10:43;;;;;;;14.40;6.10;;;;;;;6.31;49.61;100010.31;108203;1251;70302;-66
2024/03/27 02:13:10;;;;;;;15.20;7.20;;;;;;;6.33;49.51;100008.34;108245;1251;70552;-66
2024/03/27 02:15:38;;;;;;;12.30;6.30;;;;;;;6.21;49.77;100007.72;108057;1251;61131;-67
2024/03/27 02:18:05;;;;;;;11.90;6.00;;;;;;;6.16;49.86;100007.65;108170;1251;61103;-67
2024/03/27 02:20:32;;;;;;;13.00;6.80;;;;;;;6.25;49.76;100010.42;108143;1257;73382;-67
2024/03/27 02:23:02;;;;;;;11.10;5.90;;;;;;;6.20;49.98;100012.30;108143;1251;70266;-65
2024/03/27 02:25:37;;;;;;;11.20;6.10;;;;;;;6.22;49.91;100013.98;108093;1251;72481;-67
2024/03/27 02:28:04;;;;;;;13.10;6.70;;;;;;;6.18;49.95;100017.91;108236;1251;61185;-66
2024/03/27 02:30:31;;;;;;;12.80;6.80;;;;;;;6.16;49.87;100015.86;108056;1251;60014;-67
2024/03/27 02:32:59;;;;;;;13.30;6.80;;;;;;;6.16;49.64;100018.48;108111;1251;73878;-68
2024/03/27 02:35:26;;;;;;;14.70;7.50;;;;;;;6.09;49.70;100022.27;108083;1253;69945;-66
2024/03/27 02:37:53;;;;;;;17.40;6.60;;;;;;;6.00;49.82;100022.09;107982;1253;72671;-66
2024/03/27 02:40:21;;;;;;;14.10;6.70;;;;;;;5.96;50.13;100027.23;108258;1253;61785;-67
2024/03/27 02:42:48;;;;;;;13.20;6.10;;;;;;;5.90;50.20;100026.44;108042;1253;61253;-67
2024/03/27 02:45:15;;;;;;;11.60;5.90;;;;;;;5.74;50.65;100027.29;108235;1253;74683;-66
2024/03/27 02:47:43;;;;;;;12.90;7.10;;;;;;;5.77;50.51;100029.31;108151;1252;71413;-66
2024/03/27 02:50:10;;;;;;;17.00;6.90;;;;;;;5.83;50.33;100037.21;108039;1253;72642;-66
2024/03/27 02:52:37;;;;;;;14.40;7.40;;;;;;;5.80;50.47;100040.92;108032;1253;61058;-66
2024/03/27 02:55:05;;;;;;;14.90;7.50;;;;;;;5.74;50.45;100042.96;108045;1253;61133;-67
2024/03/27 02:57:33;;;;;;;15.70;7.20;;;;;;;5.69;50.60;100045.31;108139;1252;74827;-66
2024/03/27 03:00:00;;;;;;;16.10;7.50;;;;;;;5.63;50.71;100048.91;107914;1259;70832;-66
2024/03/27 03:02:27;;;;;;;15.10;8.20;;;;;;;5.60;50.58;100043.56;108061;1253;72747;-66
2024/03/27 03:04:54;;;;;;;14.80;7.90;;;;;;;5.69;50.26;100047.23;107899;1252;62067;-67
2024/03/27 03:07:22;;;;;;;17.30;8.90;;;;;;;5.71;50.18;100045.10;108124;1253;61009;-67
2024/03/27 03:09:49;;;;;;;17.20;8.60;;;;;;;5.76;50.14;100048.85;108092;1253;74637;-67
2024/03/27 03:12:16;;;;;;;16.20;7.20;;;;;;;5.74;50.12;100044.35;108135;1253;70022;-66
2024/03/27 03:14:43;;;;;;;12.40;6.60;;;;;;;5.75;49.85;100041.91;107984;1253;71551;-65
2024/03/27 03:17:10;;;;;;;15.60;7.30;;;;;;;5.68;50.03;100039.92;108074;1253;61242;-66
2024/03/27 03:19:38;;;;;;;17.10;8.70;;;;;;;5.75;49.94;100039.29;108149;1253;60097;-66
2024/03/27 03:22:06;;;;;;;10.70;6.50;;;;;;;5.79;49.72;100043.73;108086;1252;74709;-66
2024/03/27 03:24:33;;;;;;;16.40;7.80;;;;;;;5.71;49.91;100047.02;108006;1252;69014;-66
2024/03/27 03:27:01;;;;;;;12.80;7.70;;;;;;;5.72;50.10;100052.77;108057;1254;72683;-66
2024/03/27 03:29:28;;;;;;;15.40;8.50;;;;;;;5.69;49.91;100048.45;108200;1252;61111;-66
2024/03/27 03:31:57;;;;;;;16.10;8.80;;;;;;;5.67;50.03;100051.80;108140;1253;61115;-66
2024/03/27 03:34:24;;;;;;;17.90;10.10;;;;;;;5.65;49.85;100051.47;108130;1251;75366;-67
2024/03/27 03:36:52;;;;;;;18.90;9.40;;;;;;;5.63;50.03;100053.77;108098;1251;68621;-66
2024/03/27 03:39:19;;;;;;;17.30;9.10;;;;;;;5.55;50.28;100054.09;108196;1253;71138;-66
2024/03/27 03:41:46;;;;;;;17.00;8.60;;;;;;;5.52;50.24;100052.23;108103;1251;61592;-66
2024/03/27 03:44:14;;;;;;;19.80;9.20;;;;;;;5.56;50.08;100049.72;108144;1251;61121;-66
2024/03/27 03:46:41;;;;;;;15.70;8.60;;;;;;;5.63;50.14;100050.65;108174;1251;74639;-66
2024/03/27 03:49:09;;;;;;;17.60;8.40;;;;;;;5.71;49.85;100053.30;108060;1251;69341;-66
2024/03/27 03:51:36;;;;;;;15.40;7.90;;;;;;;5.65;49.94;100056.00;108178;1253;72687;-66
2024/03/27 03:54:05;;;;;;;19.60;8.60;;;;;;;5.61;50.30;100055.04;108111;1251;61709;-67
2024/03/27 03:56:32;;;;;;;15.80;8.80;;;;;;;5.65;50.17;100057.41;108169;1253;61109;-67
2024/03/27 03:59:00;;;;;;;17.80;8.30;;;;;;;5.62;50.27;100060.40;108087;1257;75007;-66
2024/03/27 04:01:28;;;;;;;17.00;7.70;;;;;;;5.62;50.49;100064.42;108117;1251;70326;-66
2024/03/27 04:03:55;;;;;;;17.70;8.30;;;;;;;5.62;50.50;100067.56;108088;1251;71430;-66
2024/03/27 04:06:24;;;;;;;18.20;9.40;;;;;;;5.65;50.58;100063.84;108126;1251;61116;-66
2024/03/27 04:08:51;;;;;;;13.90;8.80;;;;;;;5.73;50.63;100066.33;108214;1251;60263;-66
2024/03/27 04:11:18;;;;;;;14.40;8.30;;;;;;;5.72;50.66;100067.02;108166;1251;73719;-66
2024/03/27 04:13:46;;;;;;;19.20;9.80;;;;;;;5.87;50.47;100066.58;108097;1251;70029;-65
2024/03/27 04:16:13;;;;;;;18.90;9.50;;;;;;;5.90;50.41;100072.98;108164;1251;71561;-66
2024/03/27 04:18:41;;;;;;;14.30;8.20;;;;;;;6.04;50.76;100072.04;108122;1253;61884;-66
2024/03/27 04:21:08;;;;;;;13.80;8.60;;;;;;;6.34;50.87;100071.26;108122;1251;61166;-67
2024/03/27 04:23:36;;;;;;;13.30;8.10;;;;;;;6.41;50.67;100071.30;108119;1251;74828;-66
2024/03/27 04:26:04;;;;;;;15.30;7.20;;;;;;;6.52;50.79;100069.84;108167;1251;69555;-67
2024/03/27 04:28:33;;;;;;;14.90;8.70;;;;;;;6.63;50.26;100070.65;108132;1252;71218;-67
2024/03/27 04:31:04;;;;;;;18.10;9.10;;;;;;;6.70;50.52;100067.21;108107;1251;61653;-67
2024/03/27 04:33:32;;;;;;;14.90;8.20;;;;;;;7.11;51.04;100072.38;108213;1251;61132;-66
2024/03/27 04:35:59;;;;;;;18.20;8.90;;;;;;;7.97;51.98;100076.09;108079;1251;73494;-67
2024/03/27 04:38:27;;;;;;;11.90;7.50;;;;;;;9.04;51.64;100072.83;108059;1251;68846;-67
2024/03/27 04:40:56;;;;;;;15.40;6.80;;;;;;;9.96;51.12;100069.42;108107;1253;71110;-67
2024/03/27 04:43:23;;;;;;;10.40;6.40;;;;;;;10.78;50.28;100070.27;108081;1251;61090;-67
2024/03/27 04:45:50;;;;;;;8.10;6.00;;;;;;;11.48;49.39;100065.36;108063;1251;61462;-67
2024/03/27 04:48:18;;;;;;;11.30;5.90;;;;;;;12.19;48.22;100062.83;108107;1251;75313;-63
2024/03/27 04:50:45;;;;;;;15.00;5.20;;;;;;;12.89;46.77;100063.30;108135;1251;68278;-66
2024/03/27 04:53:12;;;;;;;9.30;5.20;;;;;;;13.43;45.60;100053.66;108064;1251;72451;-67
2024/03/27 04:55:39;;;;;;;8.80;5.50;;;;;;;13.98;44.51;100051.02;108078;1253;61101;-67
2024/03/27 04:58:07;;;;;;;8.60;4.70;;;;;;;14.60;43.29;100047.77;107995;1251;133733;-67
2024/03/27 05:01:44;;;;;;;9.30;5.00;;;;;;;13.50;44.63;100051.48;104922;1288;600553;-67
2024/03/27 05:04:11;;;;;;;6.40;4.50;;;;;;;15.08;41.11;100049.13;107321;1267;60993;-67
2024/03/27 05:06:41;;;;;;;6.60;4.40;;;;;;;15.33;40.10;100047.91;107295;1263;59513;-67
2024/03/27 05:09:12;;;;;;;9.80;5.00;;;;;;;15.55;39.76;100049.11;107304;1263;71868;-67
2024/03/27 05:11:39;;;;;;;7.50;4.80;;;;;;;16.17;38.99;100051.20;107322;1263;69139;-67
2024/03/27 05:14:06;;;;;;;6.50;4.50;;;;;;;16.75;37.84;100041.98;108156;1250;73128;-68
2024/03/27 05:16:33;;;;;;;6.60;4.30;;;;;;;17.17;36.81;100038.02;108098;1251;220549;-68
2024/03/27 05:19:01;;;;;;;8.10;4.70;;;;;;;17.42;36.17;100038.48;108366;1251;60919;-68
2024/03/27 05:21:28;;;;;;;8.50;4.70;;;;;;;17.57;35.77;100038.90;108326;1250;71858;-68
2024/03/27 05:23:55;;;;;;;7.30;5.50;;;;;;;17.79;35.96;100037.55;108286;1250;69143;-69
2024/03/27 05:26:23;;;;;;;10.30;6.30;;;;;;;18.22;35.37;100034.08;108267;1250;71419;-68
2024/03/27 05:28:50;;;;;;;10.80;6.70;;;;;;;18.68;34.88;100036.70;108328;1250;60543;-68
2024/03/27 05:31:18;;;;;;;12.20;8.60;;;;;;;19.20;33.98;100037.88;108263;1250;60277;-67
2024/03/27 05:33:45;;;;;;;14.50;9.70;;;;;;;19.55;33.62;100040.08;108247;1255;72543;-67
2024/03/27 05:36:13;;;;;;;17.80;11.00;;;;;;;19.96;33.15;100042.15;108263;1250;69927;-68
2024/03/27 05:38:48;;;;;;;29.30;16.00;;;;;;;20.42;32.61;100040.18;108322;1251;72192;-68
2024/03/27 05:41:15;;;;;;;35.50;20.20;;;;;;;20.70;32.04;100032.36;108299;1250;60052;-67
2024/03/27 05:43:42;;;;;;;44.10;23.80;;;;;;;20.95;31.78;100031.61;108296;1250;62870;-68
2024/03/27 05:46:09;;;;;;;48.20;23.40;;;;;;;21.26;31.51;100028.19;108275;1251;72538;-68
2024/03/27 05:48:37;;;;;;;42.00;21.50;;;;;;;21.67;31.09;100031.52;108280;1250;70857;-68
2024/03/27 05:51:04;;;;;;;35.50;17.10;;;;;;;22.27;30.24;100035.29;108244;1252;71466;-68
2024/03/27 05:53:32;;;;;;;31.60;16.20;;;;;;;22.76;29.36;100034.42;108308;1250;60479;-68
2024/03/27 05:55:59;;;;;;;24.20;11.10;;;;;;;23.11;28.42;100037.86;108307;1250;59144;-68
2024/03/27 05:58:26;;;;;;;12.80;7.20;;;;;;;23.42;27.41;100039.19;108298;1250;74109;-68
2024/03/27 06:00:55;;;;;;;14.20;4.80;;;;;;;23.24;26.15;100041.73;108284;1250;69985;-68
2024/03/27 06:03:22;;;;;;;11.70;6.40;;;;;;;22.79;26.11;100042.95;108272;1250;70594;-68
2024/03/27 06:05:50;;;;;;;13.20;6.80;;;;;;;22.69;26.47;100047.52;108257;1250;60487;-68
2024/03/27 06:08:18;;;;;;;14.90;7.10;;;;;;;22.86;26.13;100051.81;108226;1250;60305;-69
2024/03/27 06:10:47;;;;;;;11.00;6.60;;;;;;;23.04;26.32;100056.59;108277;1250;74728;-69
2024/03/27 06:13:15;;;;;;;9.10;6.20;;;;;;;23.55;25.77;100055.39;108254;1249;70133;-69
2024/03/27 06:15:42;;;;;;;8.50;6.00;;;;;;;23.72;25.80;100058.81;108292;1250;73226;-69
2024/03/27 06:18:10;;;;;;;10.80;6.30;;;;;;;23.98;24.47;100064.52;108259;1253;60390;-69
2024/03/27 06:20:38;;;;;;;9.30;6.00;;;;;;;24.07;24.51;100070.61;108296;1249;60378;-68
2024/03/27 06:23:05;;;;;;;9.90;6.50;;;;;;;24.12;24.28;100074.95;108261;1250;73810;-68
2024/03/27 06:25:32;;;;;;;9.50;6.10;;;;;;;23.86;23.87;100072.63;108290;1250;68707;-68
2024/03/27 06:27:59;;;;;;;8.20;5.80;;;;;;;23.54;24.47;100070.19;108220;1256;72448;-68
2024/03/27 06:30:27;;;;;;;10.20;6.70;;;;;;;23.59;24.63;100072.77;108212;1251;60416;-69
2024/03/27 06:32:54;;;;;;;10.30;4.70;;;;;;;24.06;24.66;100076.46;108235;1250;60406;-69
2024/03/27 06:35:22;;;;;;;13.70;6.80;;;;;;;24.27;23.87;100073.38;108276;1250;72821;-68
2024/03/27 06:37:49;;;;;;;11.30;6.20;;;;;;;23.96;23.66;100077.91;108211;1250;70379;-66
2024/03/27 06:40:17;;;;;;;14.00;7.70;;;;;;;23.99;24.04;100074.41;108222;1250;72687;-69
2024/03/27 06:42:44;;;;;;;10.60;6.10;;;;;;;24.04;24.18;100072.48;108215;1250;60367;-68
2024/03/27 06:45:11;;;;;;;13.10;6.20;;;;;;;24.30;23.79;100068.81;108219;1250;59157;-68
2024/03/27 06:47:47;;;;;;;16.40;5.70;;;;;;;24.24;23.37;100075.16;108213;1250;72957;-68
2024/03/27 06:50:15;;;;;;;10.60;5.10;;;;;;;24.22;23.56;100076.01;108196;1250;68869;-68
2024/03/27 06:52:42;;;;;;;8.30;4.30;;;;;;;24.45;22.69;100072.02;108216;1250;71143;-70
2024/03/27 06:55:09;;;;;;;8.20;4.50;;;;;;;24.35;22.63;100074.91;108221;1250;59198;-67
2024/03/27 06:57:36;;;;;;;10.70;4.80;;;;;;;24.29;22.87;100071.02;108372;1250;60395;-68
2024/03/27 07:00:05;;;;;;;15.10;7.20;;;;;;;24.33;23.08;100073.90;108264;1250;73040;-69
2024/03/27 07:02:32;;;;;;;13.40;8.10;;;;;;;24.25;23.08;100072.81;108250;1250;70096;-68
2024/03/27 07:04:59;;;;;;;13.50;7.90;;;;;;;24.27;23.12;100069.28;108263;1251;72628;-69
2024/03/27 07:07:28;;;;;;;20.60;8.30;;;;;;;24.27;22.99;100073.78;108247;1251;59993;-69
2024/03/27 07:09:55;;;;;;;18.60;8.40;;;;;;;24.19;22.57;100082.25;108187;1250;62266;-68
2024/03/27 07:12:22;;;;;;;13.80;8.20;;;;;;;24.22;22.99;100081.92;108219;1250;74259;-68
2024/03/27 07:14:51;;;;;;;18.70;10.20;;;;;;;24.33;23.01;100080.49;108334;1251;69132;-68
2024/03/27 07:17:18;;;;;;;18.90;10.50;;;;;;;24.09;23.42;100085.83;108212;1254;71428;-69
2024/03/27 07:19:46;;;;;;;21.70;10.50;;;;;;;24.26;23.60;100083.73;108252;1251;60313;-68
2024/03/27 07:22:14;;;;;;;18.60;11.00;;;;;;;24.49;23.53;100078.62;108270;1250;60291;-68
2024/03/27 07:24:42;;;;;;;24.80;11.70;;;;;;;24.90;23.43;100081.84;108357;1249;73227;-68
2024/03/27 07:27:09;;;;;;;21.60;11.80;;;;;;;25.20;23.19;100079.10;108284;1250;71820;-68
2024/03/27 07:29:36;;;;;;;14.50;8.70;;;;;;;25.54;22.57;100076.63;108274;1253;72410;-68
2024/03/27 07:32:05;;;;;;;16.80;7.90;;;;;;;25.78;22.58;100075.66;108329;1252;60846;-69
2024/03/27 07:34:32;;;;;;;17.90;7.80;;;;;;;26.04;22.03;100075.48;108236;1250;60976;-68
2024/03/27 07:37:00;;;;;;;13.70;6.70;;;;;;;26.18;21.99;100075.92;108216;1250;74060;-68
2024/03/27 07:39:27;;;;;;;12.60;5.90;;;;;;;26.18;21.19;100073.95;108186;1250;70451;-68
2024/03/27 07:41:57;;;;;;;14.10;5.90;;;;;;;26.12;21.08;100072.70;108197;1252;73030;-69
2024/03/27 07:44:24;;;;;;;11.50;6.30;;;;;;;26.26;20.97;100069.51;108225;1251;60422;-68
2024/03/27 07:46:53;;;;;;;10.80;6.20;;;;;;;26.29;21.00;100074.15;108223;1250;60425;-69
2024/03/27 07:49:21;;;;;;;8.90;5.50;;;;;;;26.22;21.14;100073.98;108205;1250;73750;-68
2024/03/27 07:51:48;;;;;;;6.90;4.60;;;;;;;26.34;21.07;100066.65;108278;1250;72592;-69
2024/03/27 07:54:15;;;;;;;8.80;4.70;;;;;;;26.49;21.06;100071.02;108230;1250;74901;-69
2024/03/27 07:56:44;;;;;;;7.40;4.10;;;;;;;26.68;20.84;100068.20;108226;1256;60332;-69
2024/03/27 07:59:11;;;;;;;9.00;3.40;;;;;;;26.89;20.37;100065.21;108302;1250;60317;-68
2024/03/27 08:01:39;;;;;;;7.40;4.20;;;;;;;26.71;19.72;100068.08;108257;1256;73025;-69
2024/03/27 08:04:06;;;;;;;12.30;4.90;;;;;;;26.55;20.04;100060.04;108369;1250;71465;-68
2024/03/27 08:06:34;;;;;;;8.30;5.00;;;;;;;26.49;20.24;100056.27;108212;1250;72790;-68
2024/03/27 08:09:01;;;;;;;10.60;5.80;;;;;;;26.78;20.40;100054.46;108211;1253;62219;-68
2024/03/27 08:11:28;;;;;;;12.60;4.90;;;;;;;27.01;20.17;100053.45;108210;1250;60408;-68
2024/03/27 08:14:04;;;;;;;6.20;4.00;;;;;;;27.04;20.36;100053.20;108219;1250;73946;-69
2024/03/27 08:16:31;;;;;;;7.50;3.80;;;;;;;27.18;19.89;100054.23;108216;1250;70958;-69
2024/03/27 08:18:59;;;;;;;5.40;2.70;;;;;;;27.14;19.38;100051.23;108191;1253;71434;-68
2024/03/27 08:21:26;;;;;;;6.10;2.50;;;;;;;26.81;19.62;100047.31;108182;1250;62247;-68
2024/03/27 08:23:55;;;;;;;4.70;2.20;;;;;;;26.84;19.81;100048.00;108266;1250;60448;-68
2024/03/27 08:26:24;;;;;;;5.30;2.70;;;;;;;26.51;19.25;100049.40;108081;1250;74212;-69
2024/03/27 08:28:51;;;;;;;4.30;2.60;;;;;;;26.19;19.80;100046.96;108230;1256;71470;-69
2024/03/27 08:31:19;;;;;;;6.00;2.50;;;;;;;26.02;19.88;100042.64;108140;1251;72724;-69
2024/03/27 08:33:46;;;;;;;5.60;2.70;;;;;;;25.82;19.97;100043.77;108160;1254;62367;-69
2024/03/27 08:36:13;;;;;;;10.00;3.00;;;;;;;25.68;20.63;100044.31;108112;1258;60650;-69
2024/03/27 08:38:44;;;;;;;10.30;2.30;;;;;;;25.71;20.27;100049.23;108156;1251;76076;-68
2024/03/27 08:41:11;;;;;;;5.50;2.80;;;;;;;25.65;20.32;100047.25;108165;1251;72570;-68
2024/03/27 08:43:39;;;;;;;4.30;2.60;;;;;;;25.76;20.67;100045.27;108141;1253;73047;-68
2024/03/27 08:46:06;;;;;;;3.00;2.20;;;;;;;25.99;20.60;100043.66;108147;1257;61148;-68
2024/03/27 08:48:34;;;;;;;3.50;2.30;;;;;;;26.08;20.15;100032.29;108119;1258;62469;-68
2024/03/27 08:51:01;;;;;;;8.70;2.60;;;;;;;26.00;20.29;100028.23;108020;1257;73789;-69
2024/03/27 08:53:28;;;;;;;3.90;2.70;;;;;;;25.79;20.30;100027.55;108132;1251;72414;-69
2024/03/27 08:55:56;;;;;;;4.40;2.50;;;;;;;25.55;20.38;100030.10;108106;1253;72808;-69
2024/03/27 08:58:23;;;;;;;7.40;2.80;;;;;;;25.45;20.57;100028.83;108081;1253;60501;-69
2024/03/27 09:00:51;;;;;;;3.30;2.20;;;;;;;25.45;20.43;100029.75;108148;1251;60346;-69
2024/03/27 09:03:18;;;;;;;7.00;2.90;;;;;;;25.52;20.23;100029.05;108179;1251;73948;-69
2024/03/27 09:05:45;;;;;;;6.50;3.00;;;;;;;25.42;20.61;100024.29;108194;1253;69612;-69
2024/03/27 09:08:13;;;;;;;5.60;3.00;;;;;;;25.40;20.86;100025.90;108131;1254;71586;-67
2024/03/27 09:10:40;;;;;;;4.70;2.50;;;;;;;25.34;21.23;100024.25;108120;1252;61426;-69
2024/03/27 09:13:07;;;;;;;5.40;3.00;;;;;;;25.33;21.42;100024.45;108140;1253;61107;-69
2024/03/27 09:15:34;;;;;;;7.40;3.60;;;;;;;25.51;21.49;100017.29;108124;1257;74541;-69
2024/03/27 09:18:02;;;;;;;5.50;3.10;;;;;;;25.71;20.88;100021.34;108150;1256;72659;-69
2024/03/27 09:20:29;;;;;;;4.50;2.90;;;;;;;25.51;20.79;100015.09;108167;1253;75268;-69
2024/03/27 09:22:57;;;;;;;8.10;3.50;;;;;;;25.15;21.58;100008.66;108151;1253;61117;-69
2024/03/27 09:25:24;;;;;;;8.20;3.20;;;;;;;25.00;22.28;100004.54;108106;1253;61114;-68
2024/03/27 09:27:51;;;;;;;5.90;3.00;;;;;;;24.63;22.64;100005.14;108107;1251;75136;-69
2024/03/27 09:30:19;;;;;;;5.90;2.90;;;;;;;24.22;22.73;100005.14;108148;1251;70596;-69
2024/03/27 09:32:46;;;;;;;5.00;2.50;;;;;;;24.19;22.62;100011.61;108078;1251;73692;-68
2024/03/27 09:35:14;;;;;;;6.60;3.00;;;;;;;23.98;21.97;100005.48;108164;1250;61234;-68
2024/03/27 09:37:41;;;;;;;5.80;3.10;;;;;;;23.87;22.35;100008.20;108266;1256;61144;-68
2024/03/27 09:40:08;;;;;;;6.60;3.20;;;;;;;23.71;22.70;100011.03;108236;1250;73634;-70
2024/03/27 09:42:36;;;;;;;7.70;3.70;;;;;;;23.69;23.04;100003.52;108118;1254;70814;-68
2024/03/27 09:45:07;;;;;;;8.20;3.80;;;;;;;24.08;22.90;100004.00;108193;1254;71472;-69
2024/03/27 09:47:34;;;;;;;6.50;3.50;;;;;;;24.15;22.65;100004.58;108082;1259;62376;-69
2024/03/27 09:50:01;;;;;;;8.00;3.60;;;;;;;24.30;22.64;100007.63;107993;1250;61089;-68
2024/03/27 09:52:29;;;;;;;5.70;3.10;;;;;;;24.13;22.67;100008.51;108178;1251;74753;-69
2024/03/27 09:54:56;;;;;;;6.00;3.40;;;;;;;23.73;22.75;100009.13;107994;1255;70508;-69
2024/03/27 09:57:23;;;;;;;5.90;3.50;;;;;;;23.71;22.74;100013.42;108132;1256;71965;-69
2024/03/27 09:59:51;;;;;;;5.70;3.30;;;;;;;23.91;22.63;100009.73;108146;1250;61099;-68
2024/03/27 10:02:18;;;;;;;7.80;3.30;;;;;;;24.08;22.29;100008.98;108139;1251;61088;-68
2024/03/27 10:04:45;;;;;;;5.00;3.30;;;;;;;24.43;22.05;100006.73;108143;1251;76852;-68
2024/03/27 10:07:14;;;;;;;9.00;4.00;;;;;;;24.45;21.60;100007.06;108200;1250;69122;-68
2024/03/27 10:09:41;;;;;;;8.50;4.10;;;;;;;24.42;21.60;100008.03;108172;1256;72869;-69
2024/03/27 10:12:10;;;;;;;8.30;3.70;;;;;;;24.42;21.31;100003.92;108138;1251;62366;-67
2024/03/27 10:14:37;;;;;;;7.80;4.00;;;;;;;24.60;21.36;100000.02;108209;1250;61119;-70
2024/03/27 10:17:05;;;;;;;7.60;3.90;;;;;;;24.86;21.10;100002.70;108181;1250;75603;-68
2024/03/27 10:19:32;;;;;;;7.40;4.80;;;;;;;24.20;21.58;100000.80;108161;1256;70307;-68
2024/03/27 10:22:00;;;;;;;7.40;4.70;;;;;;;23.62;23.41;99999.90;108195;1253;71483;-68
2024/03/27 10:24:27;;;;;;;10.80;4.50;;;;;;;23.73;23.73;99998.64;108337;1255;61356;-68
2024/03/27 10:26:54;;;;;;;8.60;4.80;;;;;;;24.02;22.79;99995.95;108122;1251;61154;-68
2024/03/27 10:29:24;;;;;;;9.60;5.30;;;;;;;24.31;22.30;99994.19;108215;1251;75308;-68
2024/03/27 10:31:51;;;;;;;8.20;5.20;;;;;;;24.29;22.73;99990.69;108072;1260;69248;-68
2024/03/27 10:34:18;;;;;;;16.90;5.40;;;;;;;24.27;22.00;99995.01;108212;1254;73043;-69
2024/03/27 10:36:46;;;;;;;12.60;6.00;;;;;;;24.31;21.81;99999.30;108162;1251;60991;-67
2024/03/27 10:39:16;;;;;;;9.50;5.70;;;;;;;24.13;22.49;99994.05;108212;1256;60137;-67
2024/03/27 10:41:44;;;;;;;9.90;5.70;;;;;;;23.90;22.37;99995.95;108189;1251;73485;-68
2024/03/27 10:44:12;;;;;;;10.80;5.10;;;;;;;23.67;22.34;99994.20;107952;1252;70860;-68
2024/03/27 10:46:39;;;;;;;8.80;5.20;;;;;;;23.51;22.75;99991.98;108022;1259;72860;-68
2024/03/27 10:49:07;;;;;;;7.40;5.50;;;;;;;23.54;22.63;99992.41;108091;1251;61121;-68
2024/03/27 10:51:34;;;;;;;8.30;5.60;;;;;;;23.41;22.49;99991.10;107959;1259;59948;-68
2024/03/27 10:54:02;;;;;;;8.00;5.40;;;;;;;23.77;22.59;99989.20;108003;1256;74993;-68
2024/03/27 10:56:29;;;;;;;12.00;5.50;;;;;;;24.26;22.39;99980.40;107968;1257;69976;-68
2024/03/27 10:58:56;;;;;;;9.50;5.90;;;;;;;24.46;22.28;99975.38;108124;1257;73127;-68
2024/03/27 11:01:24;;;;;;;8.10;5.80;;;;;;;24.38;22.07;99975.25;108105;1256;61683;-68
2024/03/27 11:03:52;;;;;;;7.50;5.90;;;;;;;23.77;22.67;99978.79;108066;1253;62378;-68
2024/03/27 11:06:19;;;;;;;8.40;6.50;;;;;;;23.18;23.88;99974.73;108070;1251;76873;-68
2024/03/27 11:08:47;;;;;;;9.70;6.40;;;;;;;22.86;24.00;99968.15;108105;1256;71478;-68
2024/03/27 11:11:14;;;;;;;6.80;5.50;;;;;;;22.98;24.25;99964.05;108090;1258;74915;-68
2024/03/27 11:13:45;;;;;;;8.10;5.80;;;;;;;23.04;24.37;99962.77;108105;1251;61085;-68
2024/03/27 11:16:12;;;;;;;8.50;6.20;;;;;;;23.16;24.05;99959.70;107959;1251;62230;-68
2024/03/27 11:18:44;;;;;;;9.20;4.30;;;;;;;22.96;22.49;99965.09;108077;1251;76337;-68